sensor_id;sensor_type;location;lat;lon;timestamp;P1;durP1;ratioP1;P2;durP2;ratioP2
20004;SDS011;69160;45.498;-73.582;2023-04-10T00:01:50;1.07;;;0.83;;
20004;SDS011;69160;45.498;-73.582;2023-04-10T00:04:16;0.60;;;0.60;;
20004;SDS011;69160;45.498;-73.582;2023-04-10T00:06:42;0.73;;;0.73;;
20004;SDS011;69160;45.498;-73.582;2023-04-10T00:09:10;0.97;;;0.90;;
20004;SDS011;69160;45.498;-73.582;2023-04-10T00:11:36;1.77;;;0.80;;
20004;SDS011;69160;45.498;-73.582;2023-04-10T00:14:02;2.50;;;0.93;;
20004;SDS011;69160;45.498;-73.582;2023-04-10T00:16:28;1.80;;;1.23;;
20004;SDS011;69160;45.498;-73.582;2023-04-10T00:18:55;1.10;;;0.80;;
20004;SDS011;69160;45.498;-73.582;2023-04-10T00:21:21;1.23;;;0.80;;
20004;SDS011;69160;45.498;-73.582;2023-04-10T00:23:47;1.03;;;0.60;;
20004;SDS011;69160;45.498;-73.582;2023-04-10T00:26:13;1.10;;;0.80;;
20004;SDS011;69160;45.498;-73.582;2023-04-10T00:28:39;1.10;;;0.80;;
20004;SDS011;69160;45.498;-73.582;2023-04-10T00:31:05;1.03;;;0.93;;
20004;SDS011;69160;45.498;-73.582;2023-04-10T00:33:31;0.90;;;0.80;;
20004;SDS011;69160;45.498;-73.582;2023-04-10T00:35:58;1.57;;;0.90;;
20004;SDS011;69160;45.498;-73.582;2023-04-10T00:38:24;1.53;;;1.30;;
20004;SDS011;69160;45.498;-73.582;2023-04-10T00:40:50;1.33;;;0.90;;
20004;SDS011;69160;45.498;-73.582;2023-04-10T00:43:17;0.90;;;0.80;;
20004;SDS011;69160;45.498;-73.582;2023-04-10T00:45:44;1.00;;;0.80;;
20004;SDS011;69160;45.498;-73.582;2023-04-10T00:48:10;1.90;;;0.87;;
20004;SDS011;69160;45.498;-73.582;2023-04-10T00:50:37;1.60;;;0.97;;
20004;SDS011;69160;45.498;-73.582;2023-04-10T00:53:03;2.20;;;0.90;;
20004;SDS011;69160;45.498;-73.582;2023-04-10T00:55:29;5.50;;;1.17;;
20004;SDS011;69160;45.498;-73.582;2023-04-10T00:57:56;4.10;;;1.30;;
20004;SDS011;69160;45.498;-73.582;2023-04-10T01:00:22;6.00;;;1.20;;
20004;SDS011;69160;45.498;-73.582;2023-04-10T01:02:48;4.53;;;1.20;;
20004;SDS011;69160;45.498;-73.582;2023-04-10T01:05:15;1.87;;;0.90;;
20004;SDS011;69160;45.498;-73.582;2023-04-10T01:07:45;2.57;;;1.20;;
20004;SDS011;69160;45.498;-73.582;2023-04-10T01:11:09;2.30;;;1.00;;
20004;SDS011;69160;45.498;-73.582;2023-04-10T01:14:06;1.30;;;1.10;;
20004;SDS011;69160;45.498;-73.582;2023-04-10T01:16:52;1.90;;;1.10;;
20004;SDS011;69160;45.498;-73.582;2023-04-10T01:22:14;2.30;;;1.00;;
20004;SDS011;69160;45.498;-73.582;2023-04-10T01:30:13;1.00;;;0.90;;
20004;SDS011;69160;45.498;-73.582;2023-04-10T01:32:42;1.87;;;1.37;;
20004;SDS011;69160;45.498;-73.582;2023-04-10T01:35:09;2.17;;;1.00;;
20004;SDS011;69160;45.498;-73.582;2023-04-10T01:37:37;1.30;;;1.00;;
20004;SDS011;69160;45.498;-73.582;2023-04-10T01:40:08;2.00;;;1.10;;
20004;SDS011;69160;45.498;-73.582;2023-04-10T01:42:38;1.53;;;0.87;;
20004;SDS011;69160;45.498;-73.582;2023-04-10T01:45:11;1.40;;;1.10;;
20004;SDS011;69160;45.498;-73.582;2023-04-10T01:47:42;2.37;;;1.23;;
20004;SDS011;69160;45.498;-73.582;2023-04-10T01:50:08;1.27;;;1.00;;
20004;SDS011;69160;45.498;-73.582;2023-04-10T01:52:36;1.33;;;0.90;;
20004;SDS011;69160;45.498;-73.582;2023-04-10T01:55:04;2.60;;;1.00;;
20004;SDS011;69160;45.498;-73.582;2023-04-10T01:57:32;1.27;;;0.93;;
20004;SDS011;69160;45.498;-73.582;2023-04-10T02:00:00;1.43;;;1.00;;
20004;SDS011;69160;45.498;-73.582;2023-04-10T02:02:30;1.37;;;1.03;;
20004;SDS011;69160;45.498;-73.582;2023-04-10T02:04:57;1.37;;;1.10;;
20004;SDS011;69160;45.498;-73.582;2023-04-10T02:07:38;1.50;;;1.07;;
20004;SDS011;69160;45.498;-73.582;2023-04-10T02:12:50;2.57;;;1.23;;
20004;SDS011;69160;45.498;-73.582;2023-04-10T02:15:21;4.63;;;1.47;;
20004;SDS011;69160;45.498;-73.582;2023-04-10T02:17:50;1.43;;;0.90;;
20004;SDS011;69160;45.498;-73.582;2023-04-10T02:20:18;1.47;;;0.90;;
20004;SDS011;69160;45.498;-73.582;2023-04-10T02:22:46;2.60;;;1.10;;
20004;SDS011;69160;45.498;-73.582;2023-04-10T02:25:13;3.50;;;1.13;;
20004;SDS011;69160;45.498;-73.582;2023-04-10T02:27:40;2.37;;;1.07;;
20004;SDS011;69160;45.498;-73.582;2023-04-10T02:30:06;1.60;;;0.90;;
20004;SDS011;69160;45.498;-73.582;2023-04-10T02:32:33;2.03;;;1.43;;
20004;SDS011;69160;45.498;-73.582;2023-04-10T02:34:59;2.00;;;1.00;;
20004;SDS011;69160;45.498;-73.582;2023-04-10T02:37:28;1.37;;;1.00;;
20004;SDS011;69160;45.498;-73.582;2023-04-10T02:39:55;1.60;;;1.00;;
20004;SDS011;69160;45.498;-73.582;2023-04-10T02:42:21;2.37;;;1.10;;
20004;SDS011;69160;45.498;-73.582;2023-04-10T02:44:47;1.73;;;1.17;;
20004;SDS011;69160;45.498;-73.582;2023-04-10T02:47:13;1.83;;;1.00;;
20004;SDS011;69160;45.498;-73.582;2023-04-10T02:49:40;2.00;;;1.00;;
20004;SDS011;69160;45.498;-73.582;2023-04-10T02:52:06;1.20;;;1.10;;
20004;SDS011;69160;45.498;-73.582;2023-04-10T02:54:32;1.60;;;1.10;;
20004;SDS011;69160;45.498;-73.582;2023-04-10T02:56:59;0.80;;;0.80;;
20004;SDS011;69160;45.498;-73.582;2023-04-10T02:59:26;1.47;;;1.10;;
20004;SDS011;69160;45.498;-73.582;2023-04-10T03:01:52;1.20;;;0.90;;
20004;SDS011;69160;45.498;-73.582;2023-04-10T03:04:18;1.17;;;0.90;;
20004;SDS011;69160;45.498;-73.582;2023-04-10T03:06:44;1.60;;;1.00;;
20004;SDS011;69160;45.498;-73.582;2023-04-10T03:09:10;1.00;;;0.90;;
20004;SDS011;69160;45.498;-73.582;2023-04-10T03:11:37;1.90;;;1.00;;
20004;SDS011;69160;45.498;-73.582;2023-04-10T03:14:03;1.20;;;1.10;;
20004;SDS011;69160;45.498;-73.582;2023-04-10T03:16:29;2.50;;;1.00;;
20004;SDS011;69160;45.498;-73.582;2023-04-10T03:18:55;1.97;;;1.30;;
20004;SDS011;69160;45.498;-73.582;2023-04-10T03:21:22;1.00;;;0.90;;
20004;SDS011;69160;45.498;-73.582;2023-04-10T03:23:48;1.43;;;1.00;;
20004;SDS011;69160;45.498;-73.582;2023-04-10T03:26:14;1.80;;;1.03;;
20004;SDS011;69160;45.498;-73.582;2023-04-10T03:28:40;1.87;;;1.20;;
20004;SDS011;69160;45.498;-73.582;2023-04-10T03:31:06;1.23;;;0.83;;
20004;SDS011;69160;45.498;-73.582;2023-04-10T03:33:33;1.90;;;1.10;;
20004;SDS011;69160;45.498;-73.582;2023-04-10T03:36:00;1.13;;;0.90;;
20004;SDS011;69160;45.498;-73.582;2023-04-10T03:38:26;1.30;;;1.10;;
20004;SDS011;69160;45.498;-73.582;2023-04-10T03:40:52;1.40;;;1.10;;
20004;SDS011;69160;45.498;-73.582;2023-04-10T03:43:18;1.10;;;0.93;;
20004;SDS011;69160;45.498;-73.582;2023-04-10T03:45:44;1.10;;;0.97;;
20004;SDS011;69160;45.498;-73.582;2023-04-10T03:48:11;4.50;;;1.37;;
20004;SDS011;69160;45.498;-73.582;2023-04-10T03:50:40;2.73;;;1.30;;
20004;SDS011;69160;45.498;-73.582;2023-04-10T03:53:06;1.10;;;1.00;;
20004;SDS011;69160;45.498;-73.582;2023-04-10T03:55:32;1.10;;;1.00;;
20004;SDS011;69160;45.498;-73.582;2023-04-10T03:57:58;1.30;;;1.03;;
20004;SDS011;69160;45.498;-73.582;2023-04-10T04:00:25;1.20;;;0.80;;
20004;SDS011;69160;45.498;-73.582;2023-04-10T04:02:51;1.57;;;1.10;;
20004;SDS011;69160;45.498;-73.582;2023-04-10T04:05:18;1.70;;;0.90;;
20004;SDS011;69160;45.498;-73.582;2023-04-10T04:07:44;1.20;;;0.90;;
20004;SDS011;69160;45.498;-73.582;2023-04-10T04:10:11;1.07;;;0.93;;
20004;SDS011;69160;45.498;-73.582;2023-04-10T04:12:37;1.47;;;1.20;;
20004;SDS011;69160;45.498;-73.582;2023-04-10T04:15:03;1.40;;;1.30;;
20004;SDS011;69160;45.498;-73.582;2023-04-10T04:17:30;1.20;;;1.10;;
20004;SDS011;69160;45.498;-73.582;2023-04-10T04:19:57;1.97;;;1.40;;
20004;SDS011;69160;45.498;-73.582;2023-04-10T04:22:23;2.07;;;1.20;;
20004;SDS011;69160;45.498;-73.582;2023-04-10T04:24:49;1.47;;;1.00;;
20004;SDS011;69160;45.498;-73.582;2023-04-10T04:27:16;1.50;;;1.00;;
20004;SDS011;69160;45.498;-73.582;2023-04-10T04:29:46;1.77;;;1.30;;
20004;SDS011;69160;45.498;-73.582;2023-04-10T04:32:12;2.13;;;1.13;;
20004;SDS011;69160;45.498;-73.582;2023-04-10T04:34:38;1.63;;;1.00;;
20004;SDS011;69160;45.498;-73.582;2023-04-10T04:37:05;2.00;;;1.30;;
20004;SDS011;69160;45.498;-73.582;2023-04-10T04:39:31;2.20;;;1.20;;
20004;SDS011;69160;45.498;-73.582;2023-04-10T04:41:57;1.27;;;1.00;;
20004;SDS011;69160;45.498;-73.582;2023-04-10T04:44:23;1.40;;;1.30;;
20004;SDS011;69160;45.498;-73.582;2023-04-10T04:46:49;1.10;;;1.00;;
20004;SDS011;69160;45.498;-73.582;2023-04-10T04:49:15;1.70;;;1.27;;
20004;SDS011;69160;45.498;-73.582;2023-04-10T04:51:41;0.87;;;0.83;;
20004;SDS011;69160;45.498;-73.582;2023-04-10T04:54:07;1.20;;;1.10;;
20004;SDS011;69160;45.498;-73.582;2023-04-10T04:56:34;1.97;;;1.30;;
20004;SDS011;69160;45.498;-73.582;2023-04-10T04:59:00;1.20;;;1.10;;
20004;SDS011;69160;45.498;-73.582;2023-04-10T05:01:26;1.20;;;1.10;;
20004;SDS011;69160;45.498;-73.582;2023-04-10T05:03:52;1.10;;;1.00;;
20004;SDS011;69160;45.498;-73.582;2023-04-10T05:06:18;1.70;;;1.27;;
20004;SDS011;69160;45.498;-73.582;2023-04-10T05:08:45;1.70;;;1.00;;
20004;SDS011;69160;45.498;-73.582;2023-04-10T05:11:11;1.10;;;1.00;;
20004;SDS011;69160;45.498;-73.582;2023-04-10T05:13:37;1.10;;;1.00;;
20004;SDS011;69160;45.498;-73.582;2023-04-10T05:16:04;3.03;;;1.33;;
20004;SDS011;69160;45.498;-73.582;2023-04-10T05:18:30;1.33;;;1.00;;
20004;SDS011;69160;45.498;-73.582;2023-04-10T05:20:57;1.40;;;1.30;;
20004;SDS011;69160;45.498;-73.582;2023-04-10T05:23:23;1.20;;;1.03;;
20004;SDS011;69160;45.498;-73.582;2023-04-10T05:25:49;1.70;;;1.20;;
20004;SDS011;69160;45.498;-73.582;2023-04-10T05:28:15;1.30;;;1.20;;
20004;SDS011;69160;45.498;-73.582;2023-04-10T05:30:41;1.17;;;1.07;;
20004;SDS011;69160;45.498;-73.582;2023-04-10T05:33:07;1.60;;;1.10;;
20004;SDS011;69160;45.498;-73.582;2023-04-10T05:35:33;1.70;;;1.10;;
20004;SDS011;69160;45.498;-73.582;2023-04-10T05:37:59;1.47;;;1.07;;
20004;SDS011;69160;45.498;-73.582;2023-04-10T05:40:26;1.83;;;1.00;;
20004;SDS011;69160;45.498;-73.582;2023-04-10T05:42:53;1.50;;;1.10;;
20004;SDS011;69160;45.498;-73.582;2023-04-10T05:45:19;1.03;;;0.90;;
20004;SDS011;69160;45.498;-73.582;2023-04-10T05:47:45;1.33;;;1.10;;
20004;SDS011;69160;45.498;-73.582;2023-04-10T05:50:11;1.20;;;0.90;;
20004;SDS011;69160;45.498;-73.582;2023-04-10T05:52:37;1.40;;;1.10;;
20004;SDS011;69160;45.498;-73.582;2023-04-10T05:55:03;1.10;;;1.00;;
20004;SDS011;69160;45.498;-73.582;2023-04-10T05:57:30;1.30;;;1.20;;
20004;SDS011;69160;45.498;-73.582;2023-04-10T05:59:56;1.10;;;1.00;;
20004;SDS011;69160;45.498;-73.582;2023-04-10T06:02:22;1.10;;;1.00;;
20004;SDS011;69160;45.498;-73.582;2023-04-10T06:04:49;1.60;;;1.40;;
20004;SDS011;69160;45.498;-73.582;2023-04-10T06:07:16;1.37;;;1.20;;
20004;SDS011;69160;45.498;-73.582;2023-04-10T06:09:42;1.47;;;1.23;;
20004;SDS011;69160;45.498;-73.582;2023-04-10T06:12:08;1.27;;;1.17;;
20004;SDS011;69160;45.498;-73.582;2023-04-10T06:14:34;1.60;;;1.23;;
20004;SDS011;69160;45.498;-73.582;2023-04-10T06:17:00;1.67;;;1.27;;
20004;SDS011;69160;45.498;-73.582;2023-04-10T06:19:26;1.30;;;1.10;;
20004;SDS011;69160;45.498;-73.582;2023-04-10T06:21:52;1.10;;;1.00;;
20004;SDS011;69160;45.498;-73.582;2023-04-10T06:24:19;1.10;;;1.00;;
20004;SDS011;69160;45.498;-73.582;2023-04-10T06:26:45;1.07;;;0.93;;
20004;SDS011;69160;45.498;-73.582;2023-04-10T06:29:11;1.10;;;1.00;;
20004;SDS011;69160;45.498;-73.582;2023-04-10T06:31:37;1.37;;;1.00;;
20004;SDS011;69160;45.498;-73.582;2023-04-10T06:34:03;1.63;;;1.20;;
20004;SDS011;69160;45.498;-73.582;2023-04-10T06:36:29;1.40;;;1.13;;
20004;SDS011;69160;45.498;-73.582;2023-04-10T06:38:55;1.23;;;1.10;;
20004;SDS011;69160;45.498;-73.582;2023-04-10T06:41:22;1.20;;;1.07;;
20004;SDS011;69160;45.498;-73.582;2023-04-10T06:43:48;1.23;;;1.00;;
20004;SDS011;69160;45.498;-73.582;2023-04-10T06:46:15;1.23;;;1.13;;
20004;SDS011;69160;45.498;-73.582;2023-04-10T06:48:41;1.53;;;1.33;;
20004;SDS011;69160;45.498;-73.582;2023-04-10T06:51:08;1.30;;;1.00;;
20004;SDS011;69160;45.498;-73.582;2023-04-10T06:53:34;1.67;;;1.20;;
20004;SDS011;69160;45.498;-73.582;2023-04-10T06:56:00;1.13;;;1.03;;
20004;SDS011;69160;45.498;-73.582;2023-04-10T06:58:26;1.17;;;1.03;;
20004;SDS011;69160;45.498;-73.582;2023-04-10T07:00:52;1.10;;;1.00;;
20004;SDS011;69160;45.498;-73.582;2023-04-10T07:03:18;1.50;;;1.23;;
20004;SDS011;69160;45.498;-73.582;2023-04-10T07:05:45;1.40;;;1.00;;
20004;SDS011;69160;45.498;-73.582;2023-04-10T07:08:11;1.00;;;0.90;;
20004;SDS011;69160;45.498;-73.582;2023-04-10T07:10:37;1.03;;;0.93;;
20004;SDS011;69160;45.498;-73.582;2023-04-10T07:13:03;1.20;;;0.97;;
20004;SDS011;69160;45.498;-73.582;2023-04-10T07:15:29;2.80;;;1.00;;
20004;SDS011;69160;45.498;-73.582;2023-04-10T07:17:55;1.40;;;1.20;;
20004;SDS011;69160;45.498;-73.582;2023-04-10T07:20:21;1.17;;;1.07;;
20004;SDS011;69160;45.498;-73.582;2023-04-10T07:22:47;1.00;;;0.90;;
20004;SDS011;69160;45.498;-73.582;2023-04-10T07:25:13;1.23;;;1.00;;
20004;SDS011;69160;45.498;-73.582;2023-04-10T07:27:40;1.40;;;1.20;;
20004;SDS011;69160;45.498;-73.582;2023-04-10T07:30:07;1.27;;;0.80;;
20004;SDS011;69160;45.498;-73.582;2023-04-10T07:32:33;1.10;;;1.00;;
20004;SDS011;69160;45.498;-73.582;2023-04-10T07:35:04;1.33;;;1.03;;
20004;SDS011;69160;45.498;-73.582;2023-04-10T07:37:31;2.80;;;1.30;;
20004;SDS011;69160;45.498;-73.582;2023-04-10T07:39:57;2.80;;;1.07;;
20004;SDS011;69160;45.498;-73.582;2023-04-10T07:42:23;1.67;;;1.27;;
20004;SDS011;69160;45.498;-73.582;2023-04-10T07:44:49;3.03;;;1.33;;
20004;SDS011;69160;45.498;-73.582;2023-04-10T07:47:16;1.53;;;0.73;;
20004;SDS011;69160;45.498;-73.582;2023-04-10T07:49:42;1.30;;;1.20;;
20004;SDS011;69160;45.498;-73.582;2023-04-10T07:52:08;1.10;;;0.90;;
20004;SDS011;69160;45.498;-73.582;2023-04-10T07:54:34;1.60;;;1.20;;
20004;SDS011;69160;45.498;-73.582;2023-04-10T07:57:00;1.13;;;1.03;;
20004;SDS011;69160;45.498;-73.582;2023-04-10T07:59:26;1.00;;;0.90;;
20004;SDS011;69160;45.498;-73.582;2023-04-10T08:01:53;0.93;;;0.80;;
20004;SDS011;69160;45.498;-73.582;2023-04-10T08:04:19;5.63;;;1.20;;
20004;SDS011;69160;45.498;-73.582;2023-04-10T08:06:46;0.90;;;0.80;;
20004;SDS011;69160;45.498;-73.582;2023-04-10T08:09:13;1.30;;;1.20;;
20004;SDS011;69160;45.498;-73.582;2023-04-10T08:11:39;1.60;;;1.10;;
20004;SDS011;69160;45.498;-73.582;2023-04-10T08:14:05;1.07;;;0.93;;
20004;SDS011;69160;45.498;-73.582;2023-04-10T08:16:33;1.10;;;1.00;;
20004;SDS011;69160;45.498;-73.582;2023-04-10T08:19:02;1.47;;;1.10;;
20004;SDS011;69160;45.498;-73.582;2023-04-10T08:21:29;1.10;;;1.00;;
20004;SDS011;69160;45.498;-73.582;2023-04-10T08:23:57;1.27;;;1.00;;
20004;SDS011;69160;45.498;-73.582;2023-04-10T08:26:25;0.90;;;0.80;;
20004;SDS011;69160;45.498;-73.582;2023-04-10T08:28:52;1.30;;;1.00;;
20004;SDS011;69160;45.498;-73.582;2023-04-10T08:31:20;0.80;;;0.73;;
20004;SDS011;69160;45.498;-73.582;2023-04-10T08:33:47;2.50;;;1.00;;
20004;SDS011;69160;45.498;-73.582;2023-04-10T08:36:14;1.43;;;1.00;;
20004;SDS011;69160;45.498;-73.582;2023-04-10T08:38:41;1.20;;;1.00;;
20004;SDS011;69160;45.498;-73.582;2023-04-10T08:41:11;1.00;;;0.90;;
20004;SDS011;69160;45.498;-73.582;2023-04-10T08:43:38;1.20;;;0.93;;
20004;SDS011;69160;45.498;-73.582;2023-04-10T08:46:05;1.10;;;1.00;;
20004;SDS011;69160;45.498;-73.582;2023-04-10T08:48:38;1.00;;;0.90;;
20004;SDS011;69160;45.498;-73.582;2023-04-10T08:51:06;0.87;;;0.87;;
20004;SDS011;69160;45.498;-73.582;2023-04-10T08:53:39;1.00;;;0.87;;
20004;SDS011;69160;45.498;-73.582;2023-04-10T08:56:08;1.03;;;0.90;;
20004;SDS011;69160;45.498;-73.582;2023-04-10T08:58:40;1.60;;;1.17;;
20004;SDS011;69160;45.498;-73.582;2023-04-10T09:01:08;1.20;;;1.10;;
20004;SDS011;69160;45.498;-73.582;2023-04-10T09:03:37;1.10;;;1.00;;
20004;SDS011;69160;45.498;-73.582;2023-04-10T09:06:04;0.83;;;0.83;;
20004;SDS011;69160;45.498;-73.582;2023-04-10T09:08:31;1.77;;;1.10;;
20004;SDS011;69160;45.498;-73.582;2023-04-10T09:10:58;0.97;;;0.83;;
20004;SDS011;69160;45.498;-73.582;2023-04-10T09:13:34;1.20;;;1.10;;
20004;SDS011;69160;45.498;-73.582;2023-04-10T09:16:05;1.63;;;0.80;;
20004;SDS011;69160;45.498;-73.582;2023-04-10T09:18:45;0.90;;;0.90;;
20004;SDS011;69160;45.498;-73.582;2023-04-10T09:21:16;0.97;;;0.87;;
20004;SDS011;69160;45.498;-73.582;2023-04-10T09:23:44;2.03;;;1.10;;
20004;SDS011;69160;45.498;-73.582;2023-04-10T09:26:28;3.17;;;1.20;;
20004;SDS011;69160;45.498;-73.582;2023-04-10T09:28:58;1.80;;;1.10;;
20004;SDS011;69160;45.498;-73.582;2023-04-10T09:31:32;0.97;;;0.87;;
20004;SDS011;69160;45.498;-73.582;2023-04-10T09:36:32;1.00;;;0.80;;
20004;SDS011;69160;45.498;-73.582;2023-04-10T09:38:58;1.30;;;1.10;;
20004;SDS011;69160;45.498;-73.582;2023-04-10T09:41:24;1.40;;;1.10;;
20004;SDS011;69160;45.498;-73.582;2023-04-10T09:44:03;1.60;;;1.17;;
20004;SDS011;69160;45.498;-73.582;2023-04-10T09:46:34;0.80;;;0.80;;
20004;SDS011;69160;45.498;-73.582;2023-04-10T09:49:00;1.50;;;0.73;;
20004;SDS011;69160;45.498;-73.582;2023-04-10T09:51:29;1.23;;;1.00;;
20004;SDS011;69160;45.498;-73.582;2023-04-10T09:53:58;1.30;;;1.07;;
20004;SDS011;69160;45.498;-73.582;2023-04-10T09:56:25;1.20;;;1.00;;
20004;SDS011;69160;45.498;-73.582;2023-04-10T09:58:53;0.90;;;0.80;;
20004;SDS011;69160;45.498;-73.582;2023-04-10T10:01:23;1.40;;;0.93;;
20004;SDS011;69160;45.498;-73.582;2023-04-10T10:03:53;1.10;;;1.00;;
20004;SDS011;69160;45.498;-73.582;2023-04-10T10:06:20;1.57;;;1.13;;
20004;SDS011;69160;45.498;-73.582;2023-04-10T10:08:47;1.53;;;1.00;;
20004;SDS011;69160;45.498;-73.582;2023-04-10T10:11:17;1.00;;;0.97;;
20004;SDS011;69160;45.498;-73.582;2023-04-10T10:13:48;1.03;;;0.93;;
20004;SDS011;69160;45.498;-73.582;2023-04-10T10:16:42;1.23;;;0.90;;
20004;SDS011;69160;45.498;-73.582;2023-04-10T10:19:15;1.30;;;0.90;;
20004;SDS011;69160;45.498;-73.582;2023-04-10T10:21:46;0.90;;;0.80;;
20004;SDS011;69160;45.498;-73.582;2023-04-10T10:24:12;1.07;;;0.73;;
20004;SDS011;69160;45.498;-73.582;2023-04-10T10:26:40;1.30;;;0.93;;
20004;SDS011;69160;45.498;-73.582;2023-04-10T10:29:08;1.00;;;0.90;;
20004;SDS011;69160;45.498;-73.582;2023-04-10T10:31:38;1.40;;;1.03;;
20004;SDS011;69160;45.498;-73.582;2023-04-10T10:34:04;1.30;;;1.10;;
20004;SDS011;69160;45.498;-73.582;2023-04-10T10:36:34;1.93;;;0.90;;
20004;SDS011;69160;45.498;-73.582;2023-04-10T10:42:05;1.40;;;1.23;;
20004;SDS011;69160;45.498;-73.582;2023-04-10T10:47:21;0.80;;;0.80;;
20004;SDS011;69160;45.498;-73.582;2023-04-10T10:49:55;1.00;;;1.00;;
20004;SDS011;69160;45.498;-73.582;2023-04-10T10:52:57;1.33;;;1.20;;
20004;SDS011;69160;45.498;-73.582;2023-04-10T10:57:54;1.00;;;0.90;;
20004;SDS011;69160;45.498;-73.582;2023-04-10T11:00:23;1.10;;;0.90;;
20004;SDS011;69160;45.498;-73.582;2023-04-10T11:08:41;1.13;;;1.03;;
20004;SDS011;69160;45.498;-73.582;2023-04-10T11:11:24;1.10;;;0.90;;
20004;SDS011;69160;45.498;-73.582;2023-04-10T11:16:18;1.03;;;0.90;;
20004;SDS011;69160;45.498;-73.582;2023-04-10T11:21:11;1.00;;;0.90;;
20004;SDS011;69160;45.498;-73.582;2023-04-10T11:31:45;1.03;;;0.90;;
20004;SDS011;69160;45.498;-73.582;2023-04-10T11:34:19;1.60;;;1.20;;
20004;SDS011;69160;45.498;-73.582;2023-04-10T11:36:46;1.10;;;0.93;;
20004;SDS011;69160;45.498;-73.582;2023-04-10T11:39:13;1.67;;;1.07;;
20004;SDS011;69160;45.498;-73.582;2023-04-10T11:41:43;0.87;;;0.87;;
20004;SDS011;69160;45.498;-73.582;2023-04-10T11:44:11;1.73;;;1.00;;
20004;SDS011;69160;45.498;-73.582;2023-04-10T11:47:01;0.87;;;0.83;;
20004;SDS011;69160;45.498;-73.582;2023-04-10T11:49:29;2.60;;;1.10;;
20004;SDS011;69160;45.498;-73.582;2023-04-10T11:51:56;1.13;;;0.83;;
20004;SDS011;69160;45.498;-73.582;2023-04-10T11:54:24;1.53;;;1.07;;
20004;SDS011;69160;45.498;-73.582;2023-04-10T11:59:32;1.70;;;0.90;;
20004;SDS011;69160;45.498;-73.582;2023-04-10T12:02:12;2.53;;;1.20;;
20004;SDS011;69160;45.498;-73.582;2023-04-10T12:04:43;1.10;;;0.70;;
20004;SDS011;69160;45.498;-73.582;2023-04-10T12:07:10;3.40;;;0.97;;
20004;SDS011;69160;45.498;-73.582;2023-04-10T12:09:36;2.10;;;1.10;;
20004;SDS011;69160;45.498;-73.582;2023-04-10T12:12:06;1.47;;;0.97;;
20004;SDS011;69160;45.498;-73.582;2023-04-10T12:14:36;4.70;;;1.07;;
20004;SDS011;69160;45.498;-73.582;2023-04-10T12:17:04;19.93;;;4.70;;
20004;SDS011;69160;45.498;-73.582;2023-04-10T12:19:35;27.00;;;5.07;;
20004;SDS011;69160;45.498;-73.582;2023-04-10T12:22:03;9.27;;;3.63;;
20004;SDS011;69160;45.498;-73.582;2023-04-10T12:24:48;8.20;;;2.63;;
20004;SDS011;69160;45.498;-73.582;2023-04-10T12:27:20;10.53;;;2.00;;
20004;SDS011;69160;45.498;-73.582;2023-04-10T12:29:47;4.50;;;2.17;;
20004;SDS011;69160;45.498;-73.582;2023-04-10T12:32:14;4.07;;;1.70;;
20004;SDS011;69160;45.498;-73.582;2023-04-10T12:34:40;4.97;;;1.73;;
20004;SDS011;69160;45.498;-73.582;2023-04-10T12:37:13;3.37;;;1.73;;
20004;SDS011;69160;45.498;-73.582;2023-04-10T12:39:39;3.63;;;1.43;;
20004;SDS011;69160;45.498;-73.582;2023-04-10T12:42:16;1.93;;;1.30;;
20004;SDS011;69160;45.498;-73.582;2023-04-10T12:44:59;1.80;;;1.13;;
20004;SDS011;69160;45.498;-73.582;2023-04-10T12:47:26;2.20;;;1.20;;
20004;SDS011;69160;45.498;-73.582;2023-04-10T12:52:32;1.67;;;1.10;;
20004;SDS011;69160;45.498;-73.582;2023-04-10T12:55:15;2.03;;;1.30;;
20004;SDS011;69160;45.498;-73.582;2023-04-10T12:57:44;2.50;;;1.37;;
20004;SDS011;69160;45.498;-73.582;2023-04-10T13:00:12;1.70;;;1.10;;
20004;SDS011;69160;45.498;-73.582;2023-04-10T13:02:40;2.50;;;1.23;;
20004;SDS011;69160;45.498;-73.582;2023-04-10T13:05:07;1.97;;;1.07;;
20004;SDS011;69160;45.498;-73.582;2023-04-10T13:07:33;2.80;;;1.30;;
20004;SDS011;69160;45.498;-73.582;2023-04-10T13:10:01;1.73;;;1.00;;
20004;SDS011;69160;45.498;-73.582;2023-04-10T13:12:28;2.50;;;1.40;;
20004;SDS011;69160;45.498;-73.582;2023-04-10T13:14:55;2.10;;;1.37;;
20004;SDS011;69160;45.498;-73.582;2023-04-10T13:17:21;1.87;;;1.10;;
20004;SDS011;69160;45.498;-73.582;2023-04-10T13:19:49;1.10;;;0.97;;
20004;SDS011;69160;45.498;-73.582;2023-04-10T13:22:15;2.40;;;1.00;;
20004;SDS011;69160;45.498;-73.582;2023-04-10T13:24:42;3.20;;;1.00;;
20004;SDS011;69160;45.498;-73.582;2023-04-10T13:27:08;1.57;;;1.00;;
20004;SDS011;69160;45.498;-73.582;2023-04-10T13:29:35;1.40;;;1.00;;
20004;SDS011;69160;45.498;-73.582;2023-04-10T13:32:03;3.73;;;1.20;;
20004;SDS011;69160;45.498;-73.582;2023-04-10T13:34:30;1.20;;;0.97;;
20004;SDS011;69160;45.498;-73.582;2023-04-10T13:36:57;2.90;;;1.00;;
20004;SDS011;69160;45.498;-73.582;2023-04-10T13:39:24;3.57;;;0.90;;
20004;SDS011;69160;45.498;-73.582;2023-04-10T13:41:51;1.57;;;0.93;;
20004;SDS011;69160;45.498;-73.582;2023-04-10T13:44:17;3.00;;;1.07;;
20004;SDS011;69160;45.498;-73.582;2023-04-10T13:46:43;2.00;;;1.47;;
20004;SDS011;69160;45.498;-73.582;2023-04-10T13:49:09;1.37;;;1.17;;
20004;SDS011;69160;45.498;-73.582;2023-04-10T13:51:35;3.50;;;1.20;;
20004;SDS011;69160;45.498;-73.582;2023-04-10T13:54:02;1.60;;;1.00;;
20004;SDS011;69160;45.498;-73.582;2023-04-10T13:56:30;0.83;;;0.80;;
20004;SDS011;69160;45.498;-73.582;2023-04-10T13:58:56;3.40;;;1.30;;
20004;SDS011;69160;45.498;-73.582;2023-04-10T14:01:22;1.80;;;1.00;;
20004;SDS011;69160;45.498;-73.582;2023-04-10T14:03:48;2.57;;;1.07;;
20004;SDS011;69160;45.498;-73.582;2023-04-10T14:06:15;1.97;;;1.13;;
20004;SDS011;69160;45.498;-73.582;2023-04-10T14:08:41;1.20;;;0.90;;
20004;SDS011;69160;45.498;-73.582;2023-04-10T14:11:07;1.33;;;0.83;;
20004;SDS011;69160;45.498;-73.582;2023-04-10T14:13:34;1.67;;;1.07;;
20004;SDS011;69160;45.498;-73.582;2023-04-10T14:16:00;1.53;;;1.10;;
20004;SDS011;69160;45.498;-73.582;2023-04-10T14:18:28;6.53;;;1.23;;
20004;SDS011;69160;45.498;-73.582;2023-04-10T14:20:54;1.63;;;1.20;;
20004;SDS011;69160;45.498;-73.582;2023-04-10T14:23:20;2.40;;;1.00;;
20004;SDS011;69160;45.498;-73.582;2023-04-10T14:25:47;3.87;;;1.00;;
20004;SDS011;69160;45.498;-73.582;2023-04-10T14:28:14;5.20;;;1.87;;
20004;SDS011;69160;45.498;-73.582;2023-04-10T14:30:44;6.00;;;1.07;;
20004;SDS011;69160;45.498;-73.582;2023-04-10T14:33:12;3.43;;;1.17;;
20004;SDS011;69160;45.498;-73.582;2023-04-10T14:35:39;1.40;;;0.90;;
20004;SDS011;69160;45.498;-73.582;2023-04-10T14:38:16;1.27;;;1.17;;
20004;SDS011;69160;45.498;-73.582;2023-04-10T14:40:42;1.07;;;0.97;;
20004;SDS011;69160;45.498;-73.582;2023-04-10T14:43:12;1.43;;;1.20;;
20004;SDS011;69160;45.498;-73.582;2023-04-10T14:45:38;1.40;;;1.00;;
20004;SDS011;69160;45.498;-73.582;2023-04-10T14:48:05;1.60;;;1.00;;
20004;SDS011;69160;45.498;-73.582;2023-04-10T14:50:31;1.10;;;0.90;;
20004;SDS011;69160;45.498;-73.582;2023-04-10T14:52:57;1.50;;;0.90;;
20004;SDS011;69160;45.498;-73.582;2023-04-10T14:55:25;7.83;;;1.10;;
20004;SDS011;69160;45.498;-73.582;2023-04-10T14:57:52;3.93;;;1.27;;
20004;SDS011;69160;45.498;-73.582;2023-04-10T15:00:19;5.50;;;0.90;;
20004;SDS011;69160;45.498;-73.582;2023-04-10T15:02:45;1.93;;;1.00;;
20004;SDS011;69160;45.498;-73.582;2023-04-10T15:05:11;1.30;;;0.83;;
20004;SDS011;69160;45.498;-73.582;2023-04-10T15:07:40;1.50;;;0.90;;
20004;SDS011;69160;45.498;-73.582;2023-04-10T15:10:06;1.97;;;1.00;;
20004;SDS011;69160;45.498;-73.582;2023-04-10T15:12:34;4.60;;;1.10;;